Time;durP1;ratioP1;P1;durP2;ratioP2;P2;SDS_P1;SDS_P2;PMS_P1;PMS_P2;Temp;Humidity;BMP_temperature;BMP_pressure;BME280_temperature;BME280_humidity;BME280_pressure;Samples;Min_cycle;Max_cycle;Signal;HPM_P1;HPM_P2
2021/12/27 00:01:16;;;;;;;;;;;;;;;5.86;100.00;95379.94;5096654;28;19954;-76
2021/12/27 00:03:42;;;;;;;;;;;;;;;5.88;100.00;95382.34;5096415;28;19973;-78
2021/12/27 00:06:09;;;;;;;;;;;;;;;5.86;100.00;95372.13;5096396;28;19953;-74
2021/12/27 00:08:41;;;;;;;;;;;;;;;5.84;100.00;95375.97;5096208;28;20339;-74
2021/12/27 00:11:08;;;;;;;;;;;;;;;5.81;100.00;95377.16;5096620;28;19949;-75
2021/12/27 00:13:34;;;;;;;;;;;;;;;5.81;100.00;95366.75;5096252;28;19966;-75
2021/12/27 00:16:00;;;;;;;;;;;;;;;5.77;100.00;95363.00;5096369;28;19993;-76
2021/12/27 00:18:26;;;;;;;;;;;;;;;5.72;100.00;95362.84;5096330;28;19960;-75
2021/12/27 00:20:52;;;;;;;;;;;;;;;5.65;100.00;95351.72;5095927;28;19956;-75
2021/12/27 00:23:18;;;;;;;;;;;;;;;5.62;100.00;95349.53;5095956;28;19981;-75
2021/12/27 00:25:44;;;;;;;;;;;;;;;5.59;100.00;95357.78;5096318;28;19957;-75
2021/12/27 00:28:10;;;;;;;;;;;;;;;5.56;100.00;95358.97;5095858;28;20477;-77
2021/12/27 00:30:38;;;;;;;;;;;;;;;5.57;100.00;95357.97;5095838;28;19968;-76
2021/12/27 00:33:04;;;;;;;;;;;;;;;5.58;100.00;95359.56;5095722;28;19953;-75
2021/12/27 00:35:32;;;;;;;;;;;;;;;5.59;100.00;95358.56;5095751;28;19958;-74
2021/12/27 00:37:58;;;;;;;;;;;;;;;5.60;100.00;95360.13;5095912;28;19964;-75
2021/12/27 00:40:25;;;;;;;;;;;;;;;5.61;100.00;95358.34;5095663;28;19955;-74
2021/12/27 00:42:51;;;;;;;;;;;;;;;5.61;100.00;95355.75;5095628;28;19966;-76
2021/12/27 00:45:17;;;;;;;;;;;;;;;5.61;100.00;95360.94;5095502;28;19997;-74
2021/12/27 00:47:43;;;;;;;;;;;;;;;5.59;100.00;95355.16;5095695;28;19964;-75
2021/12/27 00:50:10;;;;;;;;;;;;;;;5.57;100.00;95357.19;5095540;28;19964;-75
2021/12/27 00:52:36;;;;;;;;;;;;;;;5.52;100.00;95359.63;5095609;28;19956;-75
2021/12/27 00:55:04;;;;;;;;;;;;;;;5.46;100.00;95362.06;5095217;28;20374;-75
2021/12/27 00:57:30;;;;;;;;;;;;;;;5.43;100.00;95354.66;5095451;28;20424;-75
2021/12/27 00:59:56;;;;;;;;;;;;;;;5.40;100.00;95356.91;5095237;28;20045;-76
2021/12/27 01:02:22;;;;;;;;;;;;;;;5.36;100.00;95351.34;5095290;28;20420;-75
2021/12/27 01:04:47;;;;;;;;;;;;;;;5.33;100.00;95356.16;5094982;28;19987;-75
2021/12/27 01:07:13;;;;;;;;;;;;;;;5.29;100.00;95351.41;5094959;28;19959;-75
2021/12/27 01:10:02;;;;;;;;;;;;;;;5.29;100.00;95354.00;5094965;28;19963;-74
2021/12/27 01:12:34;;;;;;;;;;;;;;;5.29;100.00;95360.97;5093899;28;20334;-75
2021/12/27 01:15:10;;;;;;;;;;;;;;;5.29;100.00;95366.16;5095468;28;19965;-75
2021/12/27 01:17:37;;;;;;;;;;;;;;;5.27;100.00;95358.59;5095087;28;19971;-74
2021/12/27 01:20:04;;;;;;;;;;;;;;;5.25;100.00;95362.44;5094738;28;19955;-74
2021/12/27 01:22:30;;;;;;;;;;;;;;;5.22;100.00;95365.44;5095092;28;19954;-75
2021/12/27 01:24:56;;;;;;;;;;;;;;;5.15;100.00;95360.28;5094765;28;20292;-75
2021/12/27 01:27:22;;;;;;;;;;;;;;;5.14;100.00;95365.69;5094876;28;19973;-75
2021/12/27 01:29:48;;;;;;;;;;;;;;;5.15;100.00;95364.69;5095070;28;19967;-75
2021/12/27 01:32:14;;;;;;;;;;;;;;;5.18;100.00;95372.06;5076915;28;20469;-77
2021/12/27 01:34:39;;;;;;;;;;;;;;;5.20;100.00;95372.66;5094785;28;20386;-76
2021/12/27 01:37:06;;;;;;;;;;;;;;;5.18;100.00;95364.25;5076665;28;19969;-75
2021/12/27 01:39:32;;;;;;;;;;;;;;;5.18;100.00;95366.84;5094530;28;19963;-76
2021/12/27 01:41:58;;;;;;;;;;;;;;;5.16;100.00;95369.66;5094284;28;20007;-75
2021/12/27 01:44:24;;;;;;;;;;;;;;;5.11;100.00;95358.31;5094300;28;19976;-74
2021/12/27 01:46:52;;;;;;;;;;;;;;;5.09;100.00;95366.31;5094785;28;19960;-76
2021/12/27 01:49:18;;;;;;;;;;;;;;;5.08;100.00;95359.53;5094221;28;19970;-75
2021/12/27 01:51:44;;;;;;;;;;;;;;;5.08;100.00;95362.94;5094288;28;19975;-76
2021/12/27 01:54:10;;;;;;;;;;;;;;;5.09;100.00;95364.50;5094232;28;19977;-75
2021/12/27 01:56:36;;;;;;;;;;;;;;;5.07;100.00;95360.53;5094632;28;19952;-75
2021/12/27 01:59:03;;;;;;;;;;;;;;;5.01;100.00;95354.38;5094307;28;19965;-75
2021/12/27 02:01:29;;;;;;;;;;;;;;;4.99;100.00;95353.00;5076244;28;19949;-76
2021/12/27 02:03:55;;;;;;;;;;;;;;;4.96;100.00;95350.81;5094311;28;19979;-76
2021/12/27 02:06:21;;;;;;;;;;;;;;;4.92;100.00;95353.03;5094109;28;19965;-75
2021/12/27 02:08:47;;;;;;;;;;;;;;;4.91;100.00;95353.25;5093190;28;19958;-78
2021/12/27 02:11:14;;;;;;;;;;;;;;;4.88;100.00;95350.06;5094209;28;19961;-77
2021/12/27 02:13:44;;;;;;;;;;;;;;;4.88;100.00;95347.44;5093900;28;19957;-76
2021/12/27 02:16:11;;;;;;;;;;;;;;;4.88;100.00;95344.06;5093825;28;19950;-75
2021/12/27 02:18:37;;;;;;;;;;;;;;;4.85;100.00;95334.91;5093916;28;19955;-76
2021/12/27 02:21:04;;;;;;;;;;;;;;;4.87;100.00;95335.50;5093781;28;19954;-76
2021/12/27 02:23:30;;;;;;;;;;;;;;;4.88;100.00;95339.66;5093761;28;19987;-78
2021/12/27 02:25:56;;;;;;;;;;;;;;;4.88;100.00;95338.88;5092686;28;19968;-80
2021/12/27 02:28:22;;;;;;;;;;;;;;;4.89;100.00;95337.84;5093895;28;19959;-77
2021/12/27 02:30:50;;;;;;;;;;;;;;;4.91;100.00;95335.84;5093706;28;20061;-76
2021/12/27 02:33:16;;;;;;;;;;;;;;;4.93;100.00;95338.25;5093784;28;19966;-78
2021/12/27 02:35:46;;;;;;;;;;;;;;;4.93;100.00;95333.03;5075731;28;20308;-78
2021/12/27 02:38:14;;;;;;;;;;;;;;;4.89;100.00;95332.66;5075592;28;19968;-78
2021/12/27 02:40:40;;;;;;;;;;;;;;;4.84;100.00;95341.09;5093612;28;19958;-79
2021/12/27 02:43:07;;;;;;;;;;;;;;;4.84;100.00;95348.09;5093358;28;19967;-78
2021/12/27 02:45:35;;;;;;;;;;;;;;;4.84;100.00;95351.47;5093863;28;19952;-78
2021/12/27 02:48:02;;;;;;;;;;;;;;;4.86;100.00;95343.47;5093528;28;19983;-78
2021/12/27 02:50:28;;;;;;;;;;;;;;;4.87;100.00;95348.47;5093614;28;19962;-78
2021/12/27 02:52:53;;;;;;;;;;;;;;;4.89;100.00;95345.66;5093822;28;19986;-78
2021/12/27 02:55:19;;;;;;;;;;;;;;;4.88;100.00;95346.66;5075290;28;19985;-78
2021/12/27 02:57:46;;;;;;;;;;;;;;;4.87;100.00;95352.84;5093591;28;20057;-78
2021/12/27 03:00:17;;;;;;;;;;;;;;;4.85;100.00;95355.69;5093334;28;19952;-77
2021/12/27 03:02:44;;;;;;;;;;;;;;;4.87;100.00;95350.25;5075545;28;19955;-78
2021/12/27 03:05:11;;;;;;;;;;;;;;;4.86;100.00;95349.47;5093342;28;19951;-78
2021/12/27 03:07:37;;;;;;;;;;;;;;;4.87;100.00;95355.44;5093447;28;19965;-78
2021/12/27 03:10:03;;;;;;;;;;;;;;;4.85;100.00;95342.69;5093222;28;20419;-78
2021/12/27 03:12:29;;;;;;;;;;;;;;;4.84;100.00;95343.69;5093497;28;19954;-77
2021/12/27 03:14:55;;;;;;;;;;;;;;;4.82;100.00;95342.31;5093365;28;20002;-77
2021/12/27 03:17:21;;;;;;;;;;;;;;;4.81;100.00;95340.72;5093371;28;19997;-77
2021/12/27 03:19:47;;;;;;;;;;;;;;;4.78;100.00;95328.94;5093243;28;19968;-77
2021/12/27 03:22:13;;;;;;;;;;;;;;;4.77;100.00;95329.94;5093445;28;19963;-75
2021/12/27 03:24:38;;;;;;;;;;;;;;;4.78;100.00;95320.34;5093212;28;19980;-75
2021/12/27 03:27:04;;;;;;;;;;;;;;;4.77;100.00;95314.38;5093243;28;19962;-74
2021/12/27 03:29:30;;;;;;;;;;;;;;;4.76;100.00;95320.53;5093235;28;20032;-75
2021/12/27 03:31:58;;;;;;;;;;;;;;;4.77;100.00;95316.16;5078600;28;20007;-78
2021/12/27 03:34:23;;;;;;;;;;;;;;;4.79;100.00;95321.94;5096880;28;19959;-77
2021/12/27 03:36:50;;;;;;;;;;;;;;;4.79;100.00;95322.75;5097791;28;19953;-77
2021/12/27 03:39:15;;;;;;;;;;;;;;;4.79;100.00;95314.94;5096768;28;19963;-80
2021/12/27 03:41:41;;;;;;;;;;;;;;;4.78;100.00;95312.56;5097002;28;20406;-77
2021/12/27 03:44:07;;;;;;;;;;;;;;;4.76;100.00;95311.97;5096705;28;19973;-77
2021/12/27 03:46:33;;;;;;;;;;;;;;;4.75;100.00;95308.59;5096810;28;19967;-77
2021/12/27 03:48:59;;;;;;;;;;;;;;;4.74;100.00;95312.16;5096827;28;20296;-77
2021/12/27 03:51:25;;;;;;;;;;;;;;;4.75;100.00;95311.19;5095588;28;19969;-77
2021/12/27 03:53:51;;;;;;;;;;;;;;;4.76;100.00;95306.78;5096284;28;19956;-77
2021/12/27 03:56:17;;;;;;;;;;;;;;;4.76;100.00;95306.78;5097033;28;20322;-76
2021/12/27 03:58:58;;;;;;;;;;;;;;;4.76;100.00;95304.19;5096559;28;19959;-76
2021/12/27 04:01:26;;;;;;;;;;;;;;;4.78;100.00;95312.56;5095864;28;20038;-78
2021/12/27 04:03:54;;;;;;;;;;;;;;;4.76;100.00;95302.38;5096565;28;19978;-76
2021/12/27 04:06:20;;;;;;;;;;;;;;;4.73;100.00;95304.59;5096438;28;19966;-75
2021/12/27 04:08:47;;;;;;;;;;;;;;;4.65;100.00;95305.63;5096412;28;19951;-75
2021/12/27 04:11:13;;;;;;;;;;;;;;;4.62;100.00;95298.25;5095121;28;19950;-76
2021/12/27 04:13:39;;;;;;;;;;;;;;;4.61;100.00;95297.47;5095715;28;19966;-76
2021/12/27 04:16:05;;;;;;;;;;;;;;;4.62;100.00;95298.25;5096151;28;19960;-76
2021/12/27 04:18:31;;;;;;;;;;;;;;;4.61;100.00;95296.69;5078205;28;20401;-76
2021/12/27 04:20:57;;;;;;;;;;;;;;;4.62;100.00;95303.44;5096250;28;19958;-76
2021/12/27 04:23:23;;;;;;;;;;;;;;;4.65;100.00;95303.84;5095947;28;20103;-76
2021/12/27 04:25:49;;;;;;;;;;;;;;;4.67;100.00;95306.22;5096029;28;19975;-78
2021/12/27 04:28:16;;;;;;;;;;;;;;;4.69;100.00;95312.00;5095949;28;19968;-78
2021/12/27 04:30:43;;;;;;;;;;;;;;;4.68;100.00;95308.63;5096014;28;19965;-79
2021/12/27 04:33:09;;;;;;;;;;;;;;;4.69;100.00;95317.19;5096068;28;20408;-79
2021/12/27 04:35:35;;;;;;;;;;;;;;;4.68;100.00;95313.00;5095941;28;19957;-77
2021/12/27 04:38:01;;;;;;;;;;;;;;;4.68;100.00;95315.59;5095886;28;19960;-77
2021/12/27 04:40:29;;;;;;;;;;;;;;;4.70;100.00;95313.59;5095719;28;20317;-77
2021/12/27 04:42:57;;;;;;;;;;;;;;;4.73;100.00;95307.19;5094535;28;19956;-77
2021/12/27 04:45:23;;;;;;;;;;;;;;;4.75;100.00;95303.38;5095353;28;19985;-77
2021/12/27 04:47:49;;;;;;;;;;;;;;;4.78;100.00;95302.97;5095640;28;20013;-78
2021/12/27 04:50:15;;;;;;;;;;;;;;;4.75;100.00;95295.59;5095825;28;19983;-78
2021/12/27 04:52:42;;;;;;;;;;;;;;;4.74;100.00;95296.59;5095446;28;19962;-77
2021/12/27 04:55:08;;;;;;;;;;;;;;;4.72;100.00;95296.00;5095842;28;19980;-78
2021/12/27 04:57:34;;;;;;;;;;;;;;;4.70;100.00;95287.63;5095457;28;20338;-77
2021/12/27 05:00:00;;;;;;;;;;;;;;;4.68;100.00;95290.44;5095300;28;20401;-78
2021/12/27 05:02:26;;;;;;;;;;;;;;;4.68;100.00;95284.44;5095166;28;19961;-77
2021/12/27 05:04:52;;;;;;;;;;;;;;;4.68;100.00;95290.44;5095251;28;20008;-77
2021/12/27 05:07:18;;;;;;;;;;;;;;;4.69;100.00;95291.22;5095233;28;19963;-78
2021/12/27 05:09:44;;;;;;;;;;;;;;;4.70;100.00;95284.25;5095391;28;20001;-77
2021/12/27 05:12:12;;;;;;;;;;;;;;;4.71;100.00;95291.81;5076552;28;20510;-78
2021/12/27 05:14:37;;;;;;;;;;;;;;;4.72;100.00;95287.41;5095066;28;19966;-78
2021/12/27 05:17:04;;;;;;;;;;;;;;;4.74;100.00;95282.81;5094901;28;19979;-78
2021/12/27 05:19:29;;;;;;;;;;;;;;;4.74;100.00;95285.41;5094828;28;19965;-78
2021/12/27 05:21:55;;;;;;;;;;;;;;;4.74;100.00;95278.41;5095077;28;19969;-78
2021/12/27 05:24:22;;;;;;;;;;;;;;;4.74;100.00;95275.03;5095190;28;20378;-77
2021/12/27 05:26:49;;;;;;;;;;;;;;;4.73;100.00;95270.84;5078321;28;20334;-77
2021/12/27 05:29:16;;;;;;;;;;;;;;;4.68;100.00;95269.69;5095349;28;19955;-77
2021/12/27 05:31:42;;;;;;;;;;;;;;;4.66;100.00;95279.47;5094830;28;19963;-77
2021/12/27 05:34:10;;;;;;;;;;;;;;;4.62;100.00;95262.72;5060050;28;19963;-77
2021/12/27 05:36:36;;;;;;;;;;;;;;;4.58;100.00;95261.53;5095313;28;19959;-77
2021/12/27 05:39:03;;;;;;;;;;;;;;;4.53;100.00;95260.56;5094762;28;19958;-77
2021/12/27 05:41:29;;;;;;;;;;;;;;;4.49;100.00;95260.19;5094607;28;19966;-77
2021/12/27 05:43:55;;;;;;;;;;;;;;;4.45;100.00;95264.19;5094472;28;20315;-77
2021/12/27 05:46:21;;;;;;;;;;;;;;;4.38;100.00;95259.03;5094531;28;19968;-77
2021/12/27 05:48:47;;;;;;;;;;;;;;;4.36;100.00;95262.84;5094589;28;20010;-77
2021/12/27 05:51:12;;;;;;;;;;;;;;;4.33;100.00;95258.09;5076378;28;19981;-81
2021/12/27 05:53:38;;;;;;;;;;;;;;;4.28;100.00;95261.28;5094195;28;19964;-77
2021/12/27 05:56:04;;;;;;;;;;;;;;;4.24;100.00;95257.53;5094000;28;19989;-78
2021/12/27 05:58:30;;;;;;;;;;;;;;;4.21;100.00;95252.75;5094472;28;20347;-79
2021/12/27 06:00:56;;;;;;;;;;;;;;;4.17;100.00;95244.59;5094411;28;20045;-78
2021/12/27 06:03:22;;;;;;;;;;;;;;;4.14;100.00;95245.00;5094507;28;20036;-78
2021/12/27 06:05:48;;;;;;;;;;;;;;;4.12;100.00;95241.03;5094223;28;19955;-78
2021/12/27 06:08:14;;;;;;;;;;;;;;;4.07;100.00;95237.25;5094066;28;19962;-76
2021/12/27 06:10:40;;;;;;;;;;;;;;;4.03;99.98;95241.28;5075916;28;20430;-76
2021/12/27 06:13:06;;;;;;;;;;;;;;;4.00;100.00;95238.28;5094242;28;20002;-76
2021/12/27 06:15:32;;;;;;;;;;;;;;;3.97;99.92;95239.50;5075945;28;19957;-75
2021/12/27 06:17:58;;;;;;;;;;;;;;;3.95;100.00;95240.69;5094117;28;20336;-76
2021/12/27 06:20:24;;;;;;;;;;;;;;;3.91;99.58;95234.34;5094102;28;19968;-75
2021/12/27 06:22:55;;;;;;;;;;;;;;;3.86;99.30;95233.16;5076109;28;20396;-75
2021/12/27 06:25:21;;;;;;;;;;;;;;;3.80;98.89;95233.97;5093679;28;19985;-75
2021/12/27 06:27:47;;;;;;;;;;;;;;;3.76;98.60;95239.75;5094220;28;19963;-75
2021/12/27 06:30:14;;;;;;;;;;;;;;;3.73;98.70;95235.00;5093687;28;20351;-75
2021/12/27 06:32:41;;;;;;;;;;;;;;;3.68;98.41;95237.41;5094031;28;19963;-76
2021/12/27 06:35:10;;;;;;;;;;;;;;;3.64;98.21;95244.78;5093762;28;19960;-76
2021/12/27 06:37:40;;;;;;;;;;;;;;;3.59;97.95;95242.00;5092994;28;19955;-75
2021/12/27 06:40:06;;;;;;;;;;;;;;;3.55;97.74;95233.03;5093670;28;20330;-76
2021/12/27 06:42:32;;;;;;;;;;;;;;;3.51;97.64;95237.03;5092692;28;19977;-75
2021/12/27 06:44:58;;;;;;;;;;;;;;;3.48;97.89;95247.81;5093678;28;20069;-75
2021/12/27 06:47:25;;;;;;;;;;;;;;;3.45;97.72;95233.47;5093576;28;19965;-78
2021/12/27 06:49:52;;;;;;;;;;;;;;;3.42;98.03;95233.88;5075473;28;19957;-78
2021/12/27 06:52:18;;;;;;;;;;;;;;;3.39;97.90;95239.47;5093428;28;19965;-78
2021/12/27 06:54:44;;;;;;;;;;;;;;;3.36;97.83;95240.66;5094043;28;19982;-78
2021/12/27 06:57:11;;;;;;;;;;;;;;;3.34;98.00;95241.84;5093631;28;19966;-78
2021/12/27 06:59:37;;;;;;;;;;;;;;;3.33;98.22;95241.06;5094041;28;19975;-78
2021/12/27 07:02:03;;;;;;;;;;;;;;;3.30;98.41;95236.28;5093539;28;20395;-75
2021/12/27 07:04:31;;;;;;;;;;;;;;;3.29;98.13;95236.47;5093388;28;19965;-78
2021/12/27 07:06:56;;;;;;;;;;;;;;;3.27;97.91;95247.03;5096049;28;19967;-78
2021/12/27 07:09:23;;;;;;;;;;;;;;;3.25;97.84;95254.22;5097471;28;19967;-78
2021/12/27 07:11:48;;;;;;;;;;;;;;;3.23;97.86;95251.03;5097278;28;19957;-78
2021/12/27 07:14:14;;;;;;;;;;;;;;;3.22;97.90;95239.88;5097541;28;19956;-78
2021/12/27 07:16:40;;;;;;;;;;;;;;;3.20;97.76;95226.34;5097473;28;19963;-78
2021/12/27 07:19:06;;;;;;;;;;;;;;;3.16;97.73;95232.91;5097298;28;19955;-77
2021/12/27 07:21:32;;;;;;;;;;;;;;;3.14;97.82;95232.31;5097117;28;19962;-79
2021/12/27 07:23:58;;;;;;;;;;;;;;;3.16;98.19;95226.94;5097178;28;19977;-78
2021/12/27 07:26:24;;;;;;;;;;;;;;;3.18;98.98;95233.50;5097248;28;20062;-79
2021/12/27 07:28:50;;;;;;;;;;;;;;;3.21;100.00;95235.72;5097126;28;20432;-78
2021/12/27 07:31:16;;;;;;;;;;;;;;;3.21;100.00;95227.13;5078948;28;19974;-77
2021/12/27 07:33:41;;;;;;;;;;;;;;;3.25;100.00;95229.13;5097085;28;20001;-80
2021/12/27 07:36:10;;;;;;;;;;;;;;;3.30;100.00;95220.75;5097065;28;20039;-78
2021/12/27 07:38:36;;;;;;;;;;;;;;;3.34;100.00;95216.75;5096957;28;19965;-78
2021/12/27 07:41:02;;;;;;;;;;;;;;;3.38;100.00;95223.13;5096811;28;19957;-77
2021/12/27 07:43:28;;;;;;;;;;;;;;;3.43;100.00;95225.91;5097376;28;19965;-78
2021/12/27 07:45:54;;;;;;;;;;;;;;;3.49;100.00;95223.50;5078498;28;19972;-78
2021/12/27 07:48:20;;;;;;;;;;;;;;;3.54;100.00;95211.50;5096639;28;19956;-78
2021/12/27 07:50:46;;;;;;;;;;;;;;;3.58;100.00;95222.28;5097289;28;19954;-79
2021/12/27 07:53:12;;;;;;;;;;;;;;;3.62;100.00;95219.06;5096803;28;20047;-78
2021/12/27 07:55:39;;;;;;;;;;;;;;;3.69;100.00;95226.03;5096355;28;19980;-78
2021/12/27 07:58:05;;;;;;;;;;;;;;;3.74;100.00;95218.41;5096609;28;19961;-78
2021/12/27 08:00:31;;;;;;;;;;;;;;;3.81;100.00;95224.38;5096514;28;19961;-78
2021/12/27 08:02:57;;;;;;;;;;;;;;;3.91;100.00;95224.75;5096427;28;20421;-75
2021/12/27 08:05:23;;;;;;;;;;;;;;;4.02;100.00;95231.09;5096748;28;20002;-76
2021/12/27 08:07:49;;;;;;;;;;;;;;;4.14;100.00;95234.63;5096244;28;20330;-77
2021/12/27 08:10:15;;;;;;;;;;;;;;;4.25;100.00;95239.16;5096620;28;19957;-79
2021/12/27 08:12:41;;;;;;;;;;;;;;;4.38;100.00;95227.13;5096577;28;19959;-78
2021/12/27 08:15:08;;;;;;;;;;;;;;;4.57;100.00;95235.78;5096224;28;19958;-78
2021/12/27 08:17:34;;;;;;;;;;;;;;;4.69;100.00;95239.31;5095945;28;19958;-77
2021/12/27 08:20:00;;;;;;;;;;;;;;;4.85;98.81;95231.00;5096074;28;19964;-78
2021/12/27 08:22:26;;;;;;;;;;;;;;;5.01;100.00;95240.06;5096068;28;19958;-76
2021/12/27 08:24:52;;;;;;;;;;;;;;;5.57;100.00;95224.56;5077732;28;20073;-76
2021/12/27 08:27:20;;;;;;;;;;;;;;;5.90;100.00;95225.00;5078120;28;19985;-76
2021/12/27 08:29:46;;;;;;;;;;;;;;;6.01;96.51;95225.31;5095936;28;19950;-76
2021/12/27 08:32:13;;;;;;;;;;;;;;;5.92;95.79;95216.16;5096020;28;19950;-76
2021/12/27 08:34:39;;;;;;;;;;;;;;;5.94;96.16;95227.94;5096216;28;20389;-75
2021/12/27 08:37:05;;;;;;;;;;;;;;;5.96;96.03;95215.53;5095670;28;19991;-74
2021/12/27 08:39:31;;;;;;;;;;;;;;;6.00;95.74;95218.50;5095870;28;20452;-74
2021/12/27 08:41:57;;;;;;;;;;;;;;;5.97;95.68;95226.75;5095754;28;20396;-75
2021/12/27 08:44:23;;;;;;;;;;;;;;;6.03;95.96;95221.47;5095646;28;20016;-77
2021/12/27 08:46:49;;;;;;;;;;;;;;;6.13;96.03;95213.09;5077361;28;19963;-78
2021/12/27 08:49:15;;;;;;;;;;;;;;;6.20;96.02;95213.84;5094802;28;19958;-75
2021/12/27 08:51:41;;;;;;;;;;;;;;;6.26;95.43;95212.16;5095402;28;19996;-76
2021/12/27 08:54:07;;;;;;;;;;;;;;;6.23;95.09;95213.38;5095587;28;19969;-76
2021/12/27 08:56:33;;;;;;;;;;;;;;;6.25;95.13;95224.38;5094852;28;20049;-75
2021/12/27 08:58:59;;;;;;;;;;;;;;;6.26;93.09;95225.97;5095374;28;19961;-75
2021/12/27 09:01:26;;;;;;;;;;;;;;;6.32;93.81;95228.69;5095081;28;19960;-75
2021/12/27 09:03:52;;;;;;;;;;;;;;;6.26;92.27;95228.59;5095315;28;19962;-75
2021/12/27 09:06:18;;;;;;;;;;;;;;;6.20;94.08;95229.44;5095362;28;20018;-75
2021/12/27 09:08:43;;;;;;;;;;;;;;;6.21;94.99;95219.84;5095259;28;20502;-74
2021/12/27 09:11:09;;;;;;;;;;;;;;;6.27;95.29;95222.34;5095185;28;19958;-75
2021/12/27 09:13:38;;;;;;;;;;;;;;;6.31;94.27;95214.91;5095408;28;20474;-75
2021/12/27 09:16:04;;;;;;;;;;;;;;;6.38;95.30;95217.41;5095061;28;19965;-75
2021/12/27 09:18:32;;;;;;;;;;;;;;;6.45;95.31;95215.53;5094895;28;19952;-76
2021/12/27 09:20:58;;;;;;;;;;;;;;;6.54;94.03;95208.19;5093738;28;19956;-75
2021/12/27 09:23:24;;;;;;;;;;;;;;;6.76;94.33;95203.22;5094698;28;19961;-75
2021/12/27 09:25:50;;;;;;;;;;;;;;;6.99;95.03;95198.06;5094760;28;19989;-76
2021/12/27 09:28:16;;;;;;;;;;;;;;;7.24;94.02;95202.25;5094444;28;20352;-76
2021/12/27 09:30:42;;;;;;;;;;;;;;;7.45;91.33;95209.50;5076826;28;19968;-76
2021/12/27 09:33:08;;;;;;;;;;;;;;;7.60;90.91;95203.00;5094558;28;20434;-76
2021/12/27 09:35:35;;;;;;;;;;;;;;;7.74;91.13;95196.53;5093599;28;19956;-76
2021/12/27 09:38:01;;;;;;;;;;;;;;;7.93;91.20;95203.16;5094860;28;19962;-76
2021/12/27 09:40:26;;;;;;;;;;;;;;;8.04;90.14;95208.59;5076462;28;19984;-76
2021/12/27 09:42:53;;;;;;;;;;;;;;;8.03;90.10;95204.41;5094484;28;20406;-76
2021/12/27 09:45:20;;;;;;;;;;;;;;;7.84;88.97;95198.56;5076389;28;19966;-75
2021/12/27 09:47:49;;;;;;;;;;;;;;;7.77;89.63;95206.53;5094471;28;19957;-76
2021/12/27 09:50:18;;;;;;;;;;;;;;;7.79;85.76;95199.25;5094604;28;19965;-76
2021/12/27 09:52:46;;;;;;;;;;;;;;;7.76;88.53;95196.31;5094354;28;19958;-77
2021/12/27 09:55:12;;;;;;;;;;;;;;;7.77;89.59;95196.09;5094227;28;20377;-76
2021/12/27 09:57:38;;;;;;;;;;;;;;;7.85;90.15;95198.34;5094202;28;19966;-77
2021/12/27 10:00:06;;;;;;;;;;;;;;;7.98;90.61;95192.06;5093073;28;20317;-76
2021/12/27 10:02:35;;;;;;;;;;;;;;;8.08;90.17;95181.81;5094104;28;19959;-76
2021/12/27 10:05:03;;;;;;;;;;;;;;;8.23;88.58;95170.84;5092657;28;19966;-76
2021/12/27 10:07:30;;;;;;;;;;;;;;;8.32;87.40;95174.66;5093285;28;19982;-77
2021/12/27 10:09:59;;;;;;;;;;;;;;;8.37;87.46;95168.72;5092666;28;19953;-77
2021/12/27 10:12:28;;;;;;;;;;;;;;;8.56;88.19;95169.31;5094058;28;19963;-76
2021/12/27 10:15:01;;;;;;;;;;;;;;;8.71;87.44;95169.59;5094000;28;19963;-77
2021/12/27 10:17:31;;;;;;;;;;;;;;;8.58;86.69;95166.47;5082391;28;20068;-76
2021/12/27 10:20:15;;;;;;;;;;;;;;;8.27;83.54;95171.97;5079874;28;19954;-76
2021/12/27 10:22:48;;;;;;;;;;;;;;;7.99;87.32;95162.28;5075892;28;20020;-76
2021/12/27 10:25:15;;;;;;;;;;;;;;;7.79;85.01;95164.50;5093855;28;20338;-76
2021/12/27 10:27:41;;;;;;;;;;;;;;;7.63;87.46;95158.22;5093762;28;20020;-76
2021/12/27 10:30:09;;;;;;;;;;;;;;;7.62;90.06;95154.81;5093684;28;19966;-75
2021/12/27 10:32:35;;;;;;;;;;;;;;;7.69;90.29;95158.09;5093826;28;19959;-76
2021/12/27 10:35:04;;;;;;;;;;;;;;;7.94;90.44;95157.00;5093938;28;20025;-76
2021/12/27 10:37:32;;;;;;;;;;;;;;;8.17;86.20;95144.84;5093713;28;19971;-76
2021/12/27 10:39:59;;;;;;;;;;;;;;;8.24;83.62;95143.69;5092803;28;19952;-76
2021/12/27 10:42:45;;;;;;;;;;;;;;;8.30;86.92;95149.78;5093465;28;19980;-76
2021/12/27 10:45:13;;;;;;;;;;;;;;;8.36;87.66;95140.22;5093736;28;19964;-76
2021/12/27 10:47:41;;;;;;;;;;;;;;;8.25;84.83;95137.44;5093594;28;19955;-76
2021/12/27 10:50:12;;;;;;;;;;;;;;;8.23;88.15;95142.13;5093509;28;19957;-76
2021/12/27 10:52:48;;;;;;;;;;;;;;;8.20;87.52;95134.72;5093716;28;19959;-75
2021/12/27 10:55:17;;;;;;;;;;;;;;;8.11;84.00;95133.53;5066010;28;19990;-76
2021/12/27 10:57:43;;;;;;;;;;;;;;;8.09;87.97;95143.44;5073244;28;19973;-76
2021/12/27 11:00:15;;;;;;;;;;;;;;;8.08;88.51;95132.19;5073356;28;20432;-76
2021/12/27 11:02:41;;;;;;;;;;;;;;;8.05;88.47;95135.25;5072970;28;19956;-76
2021/12/27 11:05:11;;;;;;;;;;;;;;;8.09;89.26;95132.97;5073125;28;19972;-77
2021/12/27 11:07:39;;;;;;;;;;;;;;;8.14;89.06;95136.44;5072235;28;19974;-78
2021/12/27 11:10:05;;;;;;;;;;;;;;;8.20;88.80;95132.13;5073316;28;20331;-76
2021/12/27 11:12:31;;;;;;;;;;;;;;;8.21;88.24;95135.53;5073289;28;19958;-78
2021/12/27 11:14:57;;;;;;;;;;;;;;;8.13;87.57;95131.50;5073001;28;19977;-78
2021/12/27 11:17:23;;;;;;;;;;;;;;;8.06;87.93;95130.81;5073251;28;20370;-77
2021/12/27 11:19:49;;;;;;;;;;;;;;;8.00;87.07;95122.13;5072310;28;19958;-78
2021/12/27 11:22:15;;;;;;;;;;;;;;;8.03;88.17;95123.47;5073075;28;19962;-76
2021/12/27 11:24:43;;;;;;;;;;;;;;;8.06;89.92;95121.19;5073360;28;19970;-76
2021/12/27 11:27:09;;;;;;;;;;;;;;;8.12;89.32;95107.19;5054931;28;19969;-76
2021/12/27 11:29:35;;;;;;;;;;;;;;;8.13;88.43;95103.56;5073164;28;19965;-76
2021/12/27 11:32:12;;;;;;;;;;;;;;;8.06;87.87;95096.88;5072834;28;20410;-76
2021/12/27 11:34:54;;;;;;;;;;;;;;;8.00;89.48;95100.44;5073175;28;19990;-76
2021/12/27 11:37:20;;;;;;;;;;;;;;;7.98;89.24;95081.59;5073111;28;19954;-77
2021/12/27 11:39:47;;;;;;;;;;;;;;;7.95;87.49;95074.25;5072751;28;20402;-76
2021/12/27 11:42:18;;;;;;;;;;;;;;;7.91;88.89;95073.91;5072877;28;19961;-77
2021/12/27 11:44:53;;;;;;;;;;;;;;;7.90;89.24;95074.97;5072858;28;20028;-77
2021/12/27 11:47:23;;;;;;;;;;;;;;;7.90;88.88;95070.53;5073830;28;19957;-76
2021/12/27 11:49:52;;;;;;;;;;;;;;;7.88;89.19;95066.56;5072862;28;19956;-76
2021/12/27 11:52:27;;;;;;;;;;;;;;;7.92;90.86;95063.25;5074458;28;19956;-77
2021/12/27 11:54:55;;;;;;;;;;;;;;;8.00;91.04;95066.50;5085424;28;20353;-76
2021/12/27 11:57:39;;;;;;;;;;;;;;;8.07;91.07;95072.38;5096690;28;19963;-76
2021/12/27 12:00:18;;;;;;;;;;;;;;;8.11;90.92;95074.28;5096510;28;19957;-75
2021/12/27 12:02:55;;;;;;;;;;;;;;;8.09;90.62;95065.88;5096419;28;20414;-75
2021/12/27 12:05:39;;;;;;;;;;;;;;;8.07;89.97;95067.16;5096460;28;19980;-78
2021/12/27 12:08:06;;;;;;;;;;;;;;;8.09;91.35;95075.53;5095580;28;19952;-78
2021/12/27 12:10:32;;;;;;;;;;;;;;;8.08;90.62;95069.53;5096399;28;19959;-78
2021/12/27 12:13:20;;;;;;;;;;;;;;;8.09;89.92;95072.94;5096594;28;20326;-77
2021/12/27 12:16:07;;;;;;;;;;;;;;;8.07;90.42;95067.16;5096548;28;19950;-78
2021/12/27 12:18:33;;;;;;;;;;;;;;;8.12;90.62;95070.63;5096007;28;20308;-78
2021/12/27 12:20:59;;;;;;;;;;;;;;;8.15;90.69;95074.59;5096120;28;19963;-78
2021/12/27 12:23:26;;;;;;;;;;;;;;;8.13;90.10;95080.06;5096120;28;20417;-78
2021/12/27 12:25:59;;;;;;;;;;;;;;;8.15;89.70;95082.44;5095807;28;20088;-78
2021/12/27 12:28:25;;;;;;;;;;;;;;;8.14;90.55;95084.22;5096260;28;19980;-78
2021/12/27 12:30:52;;;;;;;;;;;;;;;8.13;89.55;95082.66;5078178;28;19959;-78
2021/12/27 12:33:22;;;;;;;;;;;;;;;8.08;89.82;95082.59;5096082;28;19972;-78
2021/12/27 12:35:49;;;;;;;;;;;;;;;8.04;89.79;95085.88;5095796;28;19959;-78
2021/12/27 12:38:18;;;;;;;;;;;;;;;7.99;90.23;95080.59;5095662;28;19957;-79
2021/12/27 12:40:45;;;;;;;;;;;;;;;7.97;90.58;95090.47;5078286;28;19960;-77
2021/12/27 12:43:12;;;;;;;;;;;;;;;7.95;90.21;95084.69;5095579;28;19956;-78
2021/12/27 12:45:38;;;;;;;;;;;;;;;7.91;90.02;95081.75;5095977;28;19977;-78
2021/12/27 12:48:04;;;;;;;;;;;;;;;7.87;91.11;95099.72;5095557;28;19961;-78
2021/12/27 12:50:30;;;;;;;;;;;;;;;7.86;90.72;95097.34;5095401;28;19966;-78